sensor_id;sensor_type;location;lat;lon;timestamp;P1;durP1;ratioP1;P2;durP2;ratioP2
26311;SDS011;14019;56.964;24.016;2023-11-22T00:01:28;14.52;;;6.13;;
26311;SDS011;14019;56.964;24.016;2023-11-22T00:04:19;14.43;;;6.63;;
26311;SDS011;14019;56.964;24.016;2023-11-22T00:07:05;14.85;;;6.93;;
26311;SDS011;14019;56.964;24.016;2023-11-22T00:09:52;15.45;;;6.65;;
26311;SDS011;14019;56.964;24.016;2023-11-22T00:12:38;18.63;;;7.25;;
26311;SDS011;14019;56.964;24.016;2023-11-22T00:15:24;14.38;;;6.40;;
26311;SDS011;14019;56.964;24.016;2023-11-22T00:18:10;15.77;;;6.65;;
26311;SDS011;14019;56.964;24.016;2023-11-22T00:20:57;16.58;;;6.80;;
26311;SDS011;14019;56.964;24.016;2023-11-22T00:23:45;16.60;;;6.28;;
26311;SDS011;14019;56.964;24.016;2023-11-22T00:26:32;15.48;;;6.53;;
26311;SDS011;14019;56.964;24.016;2023-11-22T00:29:19;14.13;;;6.57;;
26311;SDS011;14019;56.964;24.016;2023-11-22T00:32:06;15.25;;;5.75;;
26311;SDS011;14019;56.964;24.016;2023-11-22T00:34:54;14.35;;;5.80;;
26311;SDS011;14019;56.964;24.016;2023-11-22T00:37:41;12.38;;;5.90;;
26311;SDS011;14019;56.964;24.016;2023-11-22T00:40:28;14.00;;;5.60;;
26311;SDS011;14019;56.964;24.016;2023-11-22T00:43:14;10.75;;;4.93;;
26311;SDS011;14019;56.964;24.016;2023-11-22T00:46:00;11.77;;;5.30;;
26311;SDS011;14019;56.964;24.016;2023-11-22T00:48:47;11.65;;;5.30;;
26311;SDS011;14019;56.964;24.016;2023-11-22T00:51:35;11.93;;;4.93;;
26311;SDS011;14019;56.964;24.016;2023-11-22T00:54:21;11.40;;;4.93;;
26311;SDS011;14019;56.964;24.016;2023-11-22T00:57:07;9.75;;;4.63;;
26311;SDS011;14019;56.964;24.016;2023-11-22T00:59:54;10.75;;;5.18;;
26311;SDS011;14019;56.964;24.016;2023-11-22T01:02:40;11.90;;;5.07;;
26311;SDS011;14019;56.964;24.016;2023-11-22T01:05:27;13.75;;;4.60;;
26311;SDS011;14019;56.964;24.016;2023-11-22T01:08:17;12.85;;;5.00;;
26311;SDS011;14019;56.964;24.016;2023-11-22T01:11:04;9.43;;;4.13;;
26311;SDS011;14019;56.964;24.016;2023-11-22T01:13:51;7.88;;;3.80;;
26311;SDS011;14019;56.964;24.016;2023-11-22T01:16:37;7.97;;;3.92;;
26311;SDS011;14019;56.964;24.016;2023-11-22T01:19:23;8.95;;;3.80;;
26311;SDS011;14019;56.964;24.016;2023-11-22T01:22:12;6.93;;;3.25;;
26311;SDS011;14019;56.964;24.016;2023-11-22T01:24:58;7.35;;;3.05;;
26311;SDS011;14019;56.964;24.016;2023-11-22T01:27:44;5.68;;;2.80;;
26311;SDS011;14019;56.964;24.016;2023-11-22T01:30:30;9.80;;;3.42;;
26311;SDS011;14019;56.964;24.016;2023-11-22T01:33:17;7.22;;;3.30;;
26311;SDS011;14019;56.964;24.016;2023-11-22T01:36:03;6.40;;;3.10;;
26311;SDS011;14019;56.964;24.016;2023-11-22T01:38:49;6.15;;;2.88;;
26311;SDS011;14019;56.964;24.016;2023-11-22T01:41:35;7.85;;;3.10;;
26311;SDS011;14019;56.964;24.016;2023-11-22T01:44:21;7.78;;;3.35;;
26311;SDS011;14019;56.964;24.016;2023-11-22T01:47:08;6.43;;;2.90;;
26311;SDS011;14019;56.964;24.016;2023-11-22T01:49:55;9.88;;;3.20;;
26311;SDS011;14019;56.964;24.016;2023-11-22T01:52:42;6.15;;;2.90;;
26311;SDS011;14019;56.964;24.016;2023-11-22T01:55:28;11.63;;;3.65;;
26311;SDS011;14019;56.964;24.016;2023-11-22T01:58:15;8.73;;;3.75;;
26311;SDS011;14019;56.964;24.016;2023-11-22T02:01:02;10.02;;;4.40;;
26311;SDS011;14019;56.964;24.016;2023-11-22T02:03:50;10.18;;;4.47;;
26311;SDS011;14019;56.964;24.016;2023-11-22T02:06:39;11.82;;;4.28;;
26311;SDS011;14019;56.964;24.016;2023-11-22T02:09:26;10.65;;;4.00;;
26311;SDS011;14019;56.964;24.016;2023-11-22T02:12:12;11.02;;;4.22;;
26311;SDS011;14019;56.964;24.016;2023-11-22T02:14:59;12.80;;;4.57;;
26311;SDS011;14019;56.964;24.016;2023-11-22T02:17:45;14.88;;;5.03;;
26311;SDS011;14019;56.964;24.016;2023-11-22T02:20:31;14.93;;;5.10;;
26311;SDS011;14019;56.964;24.016;2023-11-22T02:23:17;11.82;;;4.70;;
26311;SDS011;14019;56.964;24.016;2023-11-22T02:26:03;9.93;;;3.92;;
26311;SDS011;14019;56.964;24.016;2023-11-22T02:28:50;9.60;;;4.00;;
26311;SDS011;14019;56.964;24.016;2023-11-22T02:31:39;10.95;;;4.03;;
26311;SDS011;14019;56.964;24.016;2023-11-22T02:34:26;8.95;;;4.10;;
26311;SDS011;14019;56.964;24.016;2023-11-22T02:37:12;7.40;;;3.63;;
26311;SDS011;14019;56.964;24.016;2023-11-22T02:40:06;9.40;;;4.35;;
26311;SDS011;14019;56.964;24.016;2023-11-22T02:42:58;9.65;;;3.88;;
26311;SDS011;14019;56.964;24.016;2023-11-22T02:45:50;8.48;;;3.85;;
26311;SDS011;14019;56.964;24.016;2023-11-22T02:48:36;8.20;;;3.85;;
26311;SDS011;14019;56.964;24.016;2023-11-22T02:51:22;9.98;;;4.05;;
26311;SDS011;14019;56.964;24.016;2023-11-22T02:54:08;9.63;;;3.97;;
26311;SDS011;14019;56.964;24.016;2023-11-22T02:56:55;10.85;;;4.43;;
26311;SDS011;14019;56.964;24.016;2023-11-22T02:59:44;9.02;;;4.05;;
26311;SDS011;14019;56.964;24.016;2023-11-22T03:02:30;9.15;;;4.15;;
26311;SDS011;14019;56.964;24.016;2023-11-22T03:05:17;9.68;;;3.80;;
26311;SDS011;14019;56.964;24.016;2023-11-22T03:08:04;9.38;;;4.10;;
26311;SDS011;14019;56.964;24.016;2023-11-22T03:10:52;10.45;;;4.13;;
26311;SDS011;14019;56.964;24.016;2023-11-22T03:13:39;9.50;;;4.30;;
26311;SDS011;14019;56.964;24.016;2023-11-22T03:16:25;12.35;;;4.55;;
26311;SDS011;14019;56.964;24.016;2023-11-22T03:19:11;9.00;;;4.07;;
26311;SDS011;14019;56.964;24.016;2023-11-22T03:21:58;9.43;;;4.15;;
26311;SDS011;14019;56.964;24.016;2023-11-22T03:24:45;11.30;;;4.05;;
26311;SDS011;14019;56.964;24.016;2023-11-22T03:27:33;10.30;;;4.57;;
26311;SDS011;14019;56.964;24.016;2023-11-22T03:30:19;10.38;;;4.47;;
26311;SDS011;14019;56.964;24.016;2023-11-22T03:33:07;12.10;;;4.63;;
26311;SDS011;14019;56.964;24.016;2023-11-22T03:35:53;13.05;;;4.80;;
26311;SDS011;14019;56.964;24.016;2023-11-22T03:38:39;11.43;;;4.43;;
26311;SDS011;14019;56.964;24.016;2023-11-22T03:41:26;12.10;;;4.65;;
26311;SDS011;14019;56.964;24.016;2023-11-22T03:44:12;10.13;;;4.45;;
26311;SDS011;14019;56.964;24.016;2023-11-22T03:46:58;11.60;;;4.70;;
26311;SDS011;14019;56.964;24.016;2023-11-22T03:49:44;9.88;;;4.55;;
26311;SDS011;14019;56.964;24.016;2023-11-22T03:52:31;13.32;;;4.82;;
26311;SDS011;14019;56.964;24.016;2023-11-22T03:55:17;10.10;;;4.50;;
26311;SDS011;14019;56.964;24.016;2023-11-22T03:58:03;11.73;;;5.10;;
26311;SDS011;14019;56.964;24.016;2023-11-22T04:00:49;12.95;;;4.85;;
26311;SDS011;14019;56.964;24.016;2023-11-22T04:03:37;12.23;;;4.57;;
26311;SDS011;14019;56.964;24.016;2023-11-22T04:06:23;10.95;;;4.60;;
26311;SDS011;14019;56.964;24.016;2023-11-22T04:09:09;12.70;;;5.05;;
26311;SDS011;14019;56.964;24.016;2023-11-22T04:11:59;12.32;;;5.32;;
26311;SDS011;14019;56.964;24.016;2023-11-22T04:14:45;12.98;;;5.15;;
26311;SDS011;14019;56.964;24.016;2023-11-22T04:17:32;15.57;;;4.78;;
26311;SDS011;14019;56.964;24.016;2023-11-22T04:20:18;12.68;;;5.10;;
26311;SDS011;14019;56.964;24.016;2023-11-22T04:23:05;13.55;;;4.70;;
26311;SDS011;14019;56.964;24.016;2023-11-22T04:25:51;13.93;;;5.03;;
26311;SDS011;14019;56.964;24.016;2023-11-22T04:28:37;11.93;;;4.63;;
26311;SDS011;14019;56.964;24.016;2023-11-22T04:31:24;13.80;;;4.97;;
26311;SDS011;14019;56.964;24.016;2023-11-22T04:34:10;11.07;;;5.25;;
26311;SDS011;14019;56.964;24.016;2023-11-22T04:36:56;15.82;;;5.30;;
26311;SDS011;14019;56.964;24.016;2023-11-22T04:39:42;12.88;;;4.88;;
26311;SDS011;14019;56.964;24.016;2023-11-22T04:42:28;13.00;;;5.15;;
26311;SDS011;14019;56.964;24.016;2023-11-22T04:45:15;11.85;;;5.05;;
26311;SDS011;14019;56.964;24.016;2023-11-22T04:48:01;11.95;;;5.13;;
26311;SDS011;14019;56.964;24.016;2023-11-22T04:50:48;12.80;;;5.28;;
26311;SDS011;14019;56.964;24.016;2023-11-22T04:53:34;14.02;;;5.82;;
26311;SDS011;14019;56.964;24.016;2023-11-22T04:56:21;14.13;;;5.50;;
26311;SDS011;14019;56.964;24.016;2023-11-22T04:59:07;13.65;;;5.78;;
26311;SDS011;14019;56.964;24.016;2023-11-22T05:01:53;12.73;;;5.00;;
26311;SDS011;14019;56.964;24.016;2023-11-22T05:04:40;13.50;;;5.40;;
26311;SDS011;14019;56.964;24.016;2023-11-22T05:07:27;12.20;;;5.22;;
26311;SDS011;14019;56.964;24.016;2023-11-22T05:10:14;13.23;;;5.55;;
26311;SDS011;14019;56.964;24.016;2023-11-22T05:13:02;16.45;;;6.15;;
26311;SDS011;14019;56.964;24.016;2023-11-22T05:15:49;15.57;;;5.88;;
26311;SDS011;14019;56.964;24.016;2023-11-22T05:18:35;16.48;;;5.90;;
26311;SDS011;14019;56.964;24.016;2023-11-22T05:21:22;16.33;;;6.07;;
26311;SDS011;14019;56.964;24.016;2023-11-22T05:24:08;18.00;;;6.78;;
26311;SDS011;14019;56.964;24.016;2023-11-22T05:26:54;17.45;;;6.00;;
26311;SDS011;14019;56.964;24.016;2023-11-22T05:29:40;17.33;;;6.38;;
26311;SDS011;14019;56.964;24.016;2023-11-22T05:32:38;13.07;;;5.60;;
26311;SDS011;14019;56.964;24.016;2023-11-22T05:35:25;13.38;;;5.90;;
26311;SDS011;14019;56.964;24.016;2023-11-22T05:38:11;14.60;;;5.82;;
26311;SDS011;14019;56.964;24.016;2023-11-22T05:40:57;14.55;;;6.07;;
26311;SDS011;14019;56.964;24.016;2023-11-22T05:43:43;20.58;;;6.20;;
26311;SDS011;14019;56.964;24.016;2023-11-22T05:46:30;15.95;;;6.40;;
26311;SDS011;14019;56.964;24.016;2023-11-22T05:49:16;13.15;;;5.80;;
26311;SDS011;14019;56.964;24.016;2023-11-22T05:52:03;16.95;;;6.18;;
26311;SDS011;14019;56.964;24.016;2023-11-22T05:54:49;14.98;;;6.03;;
26311;SDS011;14019;56.964;24.016;2023-11-22T05:57:36;14.93;;;6.10;;
26311;SDS011;14019;56.964;24.016;2023-11-22T06:00:23;16.33;;;6.60;;
26311;SDS011;14019;56.964;24.016;2023-11-22T06:03:09;17.95;;;6.28;;
26311;SDS011;14019;56.964;24.016;2023-11-22T06:05:56;16.00;;;7.18;;
26311;SDS011;14019;56.964;24.016;2023-11-22T06:09:02;20.58;;;6.57;;
26311;SDS011;14019;56.964;24.016;2023-11-22T06:11:50;22.60;;;7.00;;
26311;SDS011;14019;56.964;24.016;2023-11-22T06:14:36;20.83;;;7.13;;
26311;SDS011;14019;56.964;24.016;2023-11-22T06:17:23;19.75;;;7.20;;
26311;SDS011;14019;56.964;24.016;2023-11-22T06:20:09;17.00;;;6.70;;
26311;SDS011;14019;56.964;24.016;2023-11-22T06:22:56;25.30;;;7.60;;
26311;SDS011;14019;56.964;24.016;2023-11-22T06:25:42;31.02;;;10.10;;
26311;SDS011;14019;56.964;24.016;2023-11-22T06:28:29;24.33;;;8.10;;
26311;SDS011;14019;56.964;24.016;2023-11-22T06:31:15;22.55;;;8.10;;
26311;SDS011;14019;56.964;24.016;2023-11-22T06:34:01;27.55;;;8.68;;
26311;SDS011;14019;56.964;24.016;2023-11-22T06:36:48;29.38;;;8.60;;
26311;SDS011;14019;56.964;24.016;2023-11-22T06:39:35;23.90;;;8.50;;
26311;SDS011;14019;56.964;24.016;2023-11-22T06:42:30;27.05;;;9.75;;
26311;SDS011;14019;56.964;24.016;2023-11-22T06:45:19;27.67;;;9.73;;
26311;SDS011;14019;56.964;24.016;2023-11-22T06:48:06;34.65;;;10.38;;
26311;SDS011;14019;56.964;24.016;2023-11-22T06:50:52;32.63;;;10.68;;
26311;SDS011;14019;56.964;24.016;2023-11-22T06:53:38;26.67;;;10.50;;
26311;SDS011;14019;56.964;24.016;2023-11-22T06:56:38;37.63;;;13.90;;
26311;SDS011;14019;56.964;24.016;2023-11-22T06:59:24;37.28;;;13.20;;
26311;SDS011;14019;56.964;24.016;2023-11-22T07:02:10;32.83;;;12.45;;
26311;SDS011;14019;56.964;24.016;2023-11-22T07:04:57;90.78;;;29.98;;
26311;SDS011;14019;56.964;24.016;2023-11-22T07:07:44;32.45;;;12.02;;
26311;SDS011;14019;56.964;24.016;2023-11-22T07:10:32;39.50;;;14.00;;
26311;SDS011;14019;56.964;24.016;2023-11-22T07:13:19;38.90;;;12.73;;
26311;SDS011;14019;56.964;24.016;2023-11-22T07:16:06;33.92;;;11.93;;
26311;SDS011;14019;56.964;24.016;2023-11-22T07:18:53;34.95;;;12.90;;
26311;SDS011;14019;56.964;24.016;2023-11-22T07:21:39;40.03;;;14.00;;
26311;SDS011;14019;56.964;24.016;2023-11-22T07:24:26;42.17;;;14.23;;
26311;SDS011;14019;56.964;24.016;2023-11-22T07:27:12;41.08;;;13.40;;
26311;SDS011;14019;56.964;24.016;2023-11-22T07:29:58;38.70;;;12.27;;
26311;SDS011;14019;56.964;24.016;2023-11-22T07:32:44;36.05;;;12.75;;
26311;SDS011;14019;56.964;24.016;2023-11-22T07:35:30;36.28;;;13.30;;
26311;SDS011;14019;56.964;24.016;2023-11-22T07:38:17;32.72;;;11.23;;
26311;SDS011;14019;56.964;24.016;2023-11-22T07:41:03;35.05;;;12.55;;
26311;SDS011;14019;56.964;24.016;2023-11-22T07:43:49;37.03;;;13.30;;
26311;SDS011;14019;56.964;24.016;2023-11-22T07:46:35;30.92;;;12.00;;
26311;SDS011;14019;56.964;24.016;2023-11-22T07:49:22;41.22;;;13.77;;
26311;SDS011;14019;56.964;24.016;2023-11-22T07:52:08;47.55;;;16.73;;
26311;SDS011;14019;56.964;24.016;2023-11-22T07:54:59;57.10;;;18.98;;
26311;SDS011;14019;56.964;24.016;2023-11-22T07:57:45;50.53;;;17.73;;
26311;SDS011;14019;56.964;24.016;2023-11-22T08:00:32;44.95;;;16.30;;
26311;SDS011;14019;56.964;24.016;2023-11-22T08:03:22;51.25;;;17.20;;
26311;SDS011;14019;56.964;24.016;2023-11-22T08:06:11;53.92;;;18.88;;
26311;SDS011;14019;56.964;24.016;2023-11-22T08:08:59;52.78;;;17.63;;
26311;SDS011;14019;56.964;24.016;2023-11-22T08:11:49;47.72;;;17.05;;
26311;SDS011;14019;56.964;24.016;2023-11-22T08:14:37;50.55;;;17.25;;
26311;SDS011;14019;56.964;24.016;2023-11-22T08:17:23;32.28;;;11.38;;
26311;SDS011;14019;56.964;24.016;2023-11-22T08:20:10;30.48;;;10.50;;
26311;SDS011;14019;56.964;24.016;2023-11-22T08:23:03;29.13;;;10.90;;
26311;SDS011;14019;56.964;24.016;2023-11-22T08:25:51;33.30;;;12.75;;
26311;SDS011;14019;56.964;24.016;2023-11-22T08:28:38;35.60;;;12.50;;
26311;SDS011;14019;56.964;24.016;2023-11-22T08:31:25;29.38;;;10.30;;
26311;SDS011;14019;56.964;24.016;2023-11-22T08:34:11;28.48;;;8.93;;
26311;SDS011;14019;56.964;24.016;2023-11-22T08:36:58;27.70;;;9.15;;
26311;SDS011;14019;56.964;24.016;2023-11-22T08:39:44;35.72;;;11.93;;
26311;SDS011;14019;56.964;24.016;2023-11-22T08:42:30;31.40;;;10.43;;
26311;SDS011;14019;56.964;24.016;2023-11-22T08:45:17;28.63;;;9.75;;
26311;SDS011;14019;56.964;24.016;2023-11-22T08:48:03;27.73;;;9.90;;
26311;SDS011;14019;56.964;24.016;2023-11-22T08:50:50;29.95;;;10.50;;
26311;SDS011;14019;56.964;24.016;2023-11-22T08:53:38;25.63;;;9.88;;
26311;SDS011;14019;56.964;24.016;2023-11-22T08:56:25;24.95;;;9.52;;
26311;SDS011;14019;56.964;24.016;2023-11-22T08:59:11;20.52;;;8.65;;
26311;SDS011;14019;56.964;24.016;2023-11-22T09:01:57;17.75;;;7.15;;
26311;SDS011;14019;56.964;24.016;2023-11-22T09:04:43;19.65;;;7.80;;
26311;SDS011;14019;56.964;24.016;2023-11-22T09:07:30;15.98;;;6.40;;
26311;SDS011;14019;56.964;24.016;2023-11-22T09:10:17;12.07;;;5.28;;
26311;SDS011;14019;56.964;24.016;2023-11-22T09:13:04;16.35;;;6.60;;
26311;SDS011;14019;56.964;24.016;2023-11-22T09:15:51;15.50;;;6.13;;
26311;SDS011;14019;56.964;24.016;2023-11-22T09:18:37;14.68;;;6.40;;
26311;SDS011;14019;56.964;24.016;2023-11-22T09:21:23;17.88;;;6.38;;
26311;SDS011;14019;56.964;24.016;2023-11-22T09:24:11;13.45;;;5.20;;
26311;SDS011;14019;56.964;24.016;2023-11-22T09:26:57;14.48;;;5.88;;
26311;SDS011;14019;56.964;24.016;2023-11-22T09:29:45;14.40;;;6.15;;
26311;SDS011;14019;56.964;24.016;2023-11-22T09:32:33;14.20;;;5.75;;
26311;SDS011;14019;56.964;24.016;2023-11-22T09:35:19;14.38;;;5.60;;
26311;SDS011;14019;56.964;24.016;2023-11-22T09:38:07;16.50;;;5.50;;
26311;SDS011;14019;56.964;24.016;2023-11-22T09:40:57;10.65;;;4.97;;
26311;SDS011;14019;56.964;24.016;2023-11-22T09:43:45;15.93;;;5.63;;
26311;SDS011;14019;56.964;24.016;2023-11-22T09:46:35;15.02;;;5.60;;
26311;SDS011;14019;56.964;24.016;2023-11-22T09:49:24;12.40;;;4.10;;
26311;SDS011;14019;56.964;24.016;2023-11-22T09:52:11;9.52;;;4.13;;
26311;SDS011;14019;56.964;24.016;2023-11-22T09:55:05;9.73;;;3.95;;
26311;SDS011;14019;56.964;24.016;2023-11-22T09:57:51;7.93;;;3.80;;
26311;SDS011;14019;56.964;24.016;2023-11-22T10:00:42;8.63;;;4.18;;
26311;SDS011;14019;56.964;24.016;2023-11-22T10:03:29;12.00;;;4.70;;
26311;SDS011;14019;56.964;24.016;2023-11-22T10:06:15;8.55;;;4.25;;
26311;SDS011;14019;56.964;24.016;2023-11-22T10:09:03;9.93;;;4.35;;
26311;SDS011;14019;56.964;24.016;2023-11-22T10:11:56;9.75;;;4.30;;
26311;SDS011;14019;56.964;24.016;2023-11-22T10:14:43;9.40;;;4.10;;
26311;SDS011;14019;56.964;24.016;2023-11-22T10:17:29;9.10;;;3.60;;
26311;SDS011;14019;56.964;24.016;2023-11-22T10:20:15;10.10;;;4.05;;
26311;SDS011;14019;56.964;24.016;2023-11-22T10:23:01;9.50;;;4.32;;
26311;SDS011;14019;56.964;24.016;2023-11-22T10:25:49;11.15;;;4.72;;
26311;SDS011;14019;56.964;24.016;2023-11-22T10:28:36;13.80;;;5.10;;
26311;SDS011;14019;56.964;24.016;2023-11-22T10:31:25;14.85;;;5.13;;
26311;SDS011;14019;56.964;24.016;2023-11-22T10:34:13;11.63;;;5.13;;
26311;SDS011;14019;56.964;24.016;2023-11-22T10:37:01;12.43;;;4.50;;
26311;SDS011;14019;56.964;24.016;2023-11-22T10:39:52;11.13;;;5.05;;
26311;SDS011;14019;56.964;24.016;2023-11-22T10:42:41;10.52;;;4.82;;
26311;SDS011;14019;56.964;24.016;2023-11-22T10:45:31;12.57;;;4.88;;
26311;SDS011;14019;56.964;24.016;2023-11-22T10:48:17;12.43;;;4.28;;
26311;SDS011;14019;56.964;24.016;2023-11-22T10:51:05;9.18;;;3.70;;
26311;SDS011;14019;56.964;24.016;2023-11-22T10:53:52;11.43;;;3.75;;
26311;SDS011;14019;56.964;24.016;2023-11-22T10:56:40;9.05;;;4.00;;
26311;SDS011;14019;56.964;24.016;2023-11-22T10:59:29;7.95;;;3.42;;
26311;SDS011;14019;56.964;24.016;2023-11-22T11:02:16;8.45;;;3.42;;
26311;SDS011;14019;56.964;24.016;2023-11-22T11:05:06;11.32;;;3.58;;
26311;SDS011;14019;56.964;24.016;2023-11-22T11:08:09;10.93;;;3.70;;
26311;SDS011;14019;56.964;24.016;2023-11-22T11:10:56;15.32;;;3.60;;
26311;SDS011;14019;56.964;24.016;2023-11-22T11:13:43;6.22;;;3.05;;
26311;SDS011;14019;56.964;24.016;2023-11-22T11:16:31;10.82;;;3.53;;
26311;SDS011;14019;56.964;24.016;2023-11-22T11:19:19;7.03;;;3.20;;
26311;SDS011;14019;56.964;24.016;2023-11-22T11:22:11;7.95;;;3.40;;
26311;SDS011;14019;56.964;24.016;2023-11-22T11:25:02;10.07;;;3.67;;
26311;SDS011;14019;56.964;24.016;2023-11-22T11:27:59;9.25;;;3.47;;
26311;SDS011;14019;56.964;24.016;2023-11-22T11:30:46;9.02;;;2.53;;
26311;SDS011;14019;56.964;24.016;2023-11-22T11:33:34;7.43;;;3.03;;
26311;SDS011;14019;56.964;24.016;2023-11-22T11:36:22;7.53;;;3.10;;
26311;SDS011;14019;56.964;24.016;2023-11-22T11:39:12;7.13;;;3.40;;
26311;SDS011;14019;56.964;24.016;2023-11-22T11:42:08;5.70;;;2.97;;
26311;SDS011;14019;56.964;24.016;2023-11-22T11:47:47;4.95;;;2.45;;
26311;SDS011;14019;56.964;24.016;2023-11-22T11:50:33;6.05;;;2.45;;
26311;SDS011;14019;56.964;24.016;2023-11-22T11:53:19;5.78;;;2.80;;
26311;SDS011;14019;56.964;24.016;2023-11-22T11:56:06;7.28;;;2.63;;
26311;SDS011;14019;56.964;24.016;2023-11-22T11:59:01;8.98;;;2.47;;
26311;SDS011;14019;56.964;24.016;2023-11-22T12:01:55;8.38;;;2.80;;
26311;SDS011;14019;56.964;24.016;2023-11-22T12:04:43;12.88;;;2.97;;
26311;SDS011;14019;56.964;24.016;2023-11-22T12:07:29;7.43;;;2.65;;
26311;SDS011;14019;56.964;24.016;2023-11-22T12:10:15;11.98;;;3.30;;
26311;SDS011;14019;56.964;24.016;2023-11-22T12:13:02;14.85;;;3.80;;
26311;SDS011;14019;56.964;24.016;2023-11-22T12:15:48;10.15;;;3.03;;
26311;SDS011;14019;56.964;24.016;2023-11-22T12:18:42;13.82;;;4.00;;
26311;SDS011;14019;56.964;24.016;2023-11-22T12:24:16;9.07;;;3.50;;
26311;SDS011;14019;56.964;24.016;2023-11-22T12:27:02;10.90;;;3.88;;
26311;SDS011;14019;56.964;24.016;2023-11-22T12:29:51;9.55;;;4.07;;
26311;SDS011;14019;56.964;24.016;2023-11-22T12:32:40;10.70;;;4.32;;
26311;SDS011;14019;56.964;24.016;2023-11-22T12:35:27;14.43;;;4.88;;
26311;SDS011;14019;56.964;24.016;2023-11-22T12:38:13;19.70;;;5.32;;
26311;SDS011;14019;56.964;24.016;2023-11-22T12:41:02;19.35;;;6.55;;
26311;SDS011;14019;56.964;24.016;2023-11-22T12:44:01;19.05;;;6.72;;
26311;SDS011;14019;56.964;24.016;2023-11-22T12:49:45;23.40;;;7.15;;
26311;SDS011;14019;56.964;24.016;2023-11-22T12:52:31;22.92;;;7.70;;
26311;SDS011;14019;56.964;24.016;2023-11-22T12:55:18;22.20;;;7.15;;
26311;SDS011;14019;56.964;24.016;2023-11-22T12:58:04;22.15;;;7.00;;
26311;SDS011;14019;56.964;24.016;2023-11-22T13:00:52;17.20;;;6.63;;
26311;SDS011;14019;56.964;24.016;2023-11-22T13:03:43;16.90;;;6.18;;
26311;SDS011;14019;56.964;24.016;2023-11-22T13:06:30;15.05;;;5.90;;
26311;SDS011;14019;56.964;24.016;2023-11-22T13:09:17;13.43;;;5.78;;
26311;SDS011;14019;56.964;24.016;2023-11-22T13:12:03;19.35;;;5.45;;
26311;SDS011;14019;56.964;24.016;2023-11-22T13:14:50;11.68;;;5.40;;
26311;SDS011;14019;56.964;24.016;2023-11-22T13:17:36;20.17;;;5.25;;
26311;SDS011;14019;56.964;24.016;2023-11-22T13:20:23;13.68;;;5.03;;
26311;SDS011;14019;56.964;24.016;2023-11-22T13:23:11;14.90;;;4.85;;
26311;SDS011;14019;56.964;24.016;2023-11-22T13:25:58;9.73;;;4.47;;
26311;SDS011;14019;56.964;24.016;2023-11-22T13:28:45;15.68;;;4.63;;
26311;SDS011;14019;56.964;24.016;2023-11-22T13:31:31;11.23;;;3.80;;
26311;SDS011;14019;56.964;24.016;2023-11-22T13:34:17;9.20;;;4.07;;
26311;SDS011;14019;56.964;24.016;2023-11-22T13:37:03;12.48;;;4.85;;
26311;SDS011;14019;56.964;24.016;2023-11-22T13:39:49;16.48;;;5.20;;
26311;SDS011;14019;56.964;24.016;2023-11-22T13:42:36;19.73;;;5.05;;
26311;SDS011;14019;56.964;24.016;2023-11-22T13:45:23;12.48;;;5.40;;
26311;SDS011;14019;56.964;24.016;2023-11-22T13:48:09;14.27;;;5.35;;
26311;SDS011;14019;56.964;24.016;2023-11-22T13:50:57;22.55;;;5.47;;
26311;SDS011;14019;56.964;24.016;2023-11-22T13:53:45;15.40;;;5.28;;
26311;SDS011;14019;56.964;24.016;2023-11-22T13:56:38;16.55;;;5.30;;
26311;SDS011;14019;56.964;24.016;2023-11-22T13:59:24;13.07;;;4.90;;
26311;SDS011;14019;56.964;24.016;2023-11-22T14:02:11;13.75;;;5.10;;
26311;SDS011;14019;56.964;24.016;2023-11-22T14:04:58;13.75;;;4.80;;
26311;SDS011;14019;56.964;24.016;2023-11-22T14:07:44;9.68;;;4.47;;
26311;SDS011;14019;56.964;24.016;2023-11-22T14:10:30;13.00;;;5.60;;
26311;SDS011;14019;56.964;24.016;2023-11-22T14:13:17;13.20;;;5.75;;
26311;SDS011;14019;56.964;24.016;2023-11-22T14:16:03;12.40;;;5.18;;
26311;SDS011;14019;56.964;24.016;2023-11-22T14:18:50;12.82;;;5.13;;
26311;SDS011;14019;56.964;24.016;2023-11-22T14:21:37;11.30;;;5.00;;
26311;SDS011;14019;56.964;24.016;2023-11-22T14:24:23;15.63;;;5.55;;
26311;SDS011;14019;56.964;24.016;2023-11-22T14:27:11;13.50;;;5.28;;
26311;SDS011;14019;56.964;24.016;2023-11-22T14:29:58;15.48;;;5.10;;
26311;SDS011;14019;56.964;24.016;2023-11-22T14:32:44;13.57;;;5.32;;
26311;SDS011;14019;56.964;24.016;2023-11-22T14:35:32;12.65;;;5.50;;
26311;SDS011;14019;56.964;24.016;2023-11-22T14:38:19;16.25;;;5.45;;
26311;SDS011;14019;56.964;24.016;2023-11-22T14:41:07;13.63;;;5.57;;
26311;SDS011;14019;56.964;24.016;2023-11-22T14:43:55;13.55;;;5.05;;
26311;SDS011;14019;56.964;24.016;2023-11-22T14:46:41;12.45;;;5.28;;
26311;SDS011;14019;56.964;24.016;2023-11-22T14:49:27;15.80;;;5.60;;
26311;SDS011;14019;56.964;24.016;2023-11-22T14:52:25;12.65;;;5.05;;
26311;SDS011;14019;56.964;24.016;2023-11-22T14:55:11;17.00;;;4.93;;
26311;SDS011;14019;56.964;24.016;2023-11-22T14:57:57;13.43;;;5.10;;
26311;SDS011;14019;56.964;24.016;2023-11-22T15:00:45;12.02;;;5.18;;
26311;SDS011;14019;56.964;24.016;2023-11-22T15:03:31;14.68;;;5.60;;
26311;SDS011;14019;56.964;24.016;2023-11-22T15:06:18;14.43;;;5.53;;
26311;SDS011;14019;56.964;24.016;2023-11-22T15:09:04;13.60;;;5.65;;
26311;SDS011;14019;56.964;24.016;2023-11-22T15:11:54;13.35;;;5.85;;
26311;SDS011;14019;56.964;24.016;2023-11-22T15:14:42;14.15;;;5.60;;
26311;SDS011;14019;56.964;24.016;2023-11-22T15:17:28;15.13;;;5.32;;
26311;SDS011;14019;56.964;24.016;2023-11-22T15:20:16;18.13;;;5.40;;
26311;SDS011;14019;56.964;24.016;2023-11-22T15:23:02;12.70;;;5.15;;
26311;SDS011;14019;56.964;24.016;2023-11-22T15:25:50;19.70;;;5.95;;
26311;SDS011;14019;56.964;24.016;2023-11-22T15:28:39;14.27;;;5.90;;
26311;SDS011;14019;56.964;24.016;2023-11-22T15:31:25;13.73;;;5.55;;
26311;SDS011;14019;56.964;24.016;2023-11-22T15:34:11;13.13;;;5.43;;
26311;SDS011;14019;56.964;24.016;2023-11-22T15:36:58;15.30;;;5.82;;
26311;SDS011;14019;56.964;24.016;2023-11-22T15:39:44;13.80;;;5.45;;
26311;SDS011;14019;56.964;24.016;2023-11-22T15:42:31;15.68;;;5.70;;
26311;SDS011;14019;56.964;24.016;2023-11-22T15:45:17;16.58;;;5.95;;
26311;SDS011;14019;56.964;24.016;2023-11-22T15:48:03;13.15;;;5.22;;
26311;SDS011;14019;56.964;24.016;2023-11-22T15:50:50;16.52;;;5.85;;
26311;SDS011;14019;56.964;24.016;2023-11-22T15:53:37;14.98;;;5.75;;
26311;SDS011;14019;56.964;24.016;2023-11-22T15:56:23;17.02;;;6.18;;
26311;SDS011;14019;56.964;24.016;2023-11-22T15:59:12;21.75;;;6.53;;
26311;SDS011;14019;56.964;24.016;2023-11-22T16:01:58;16.88;;;6.18;;
26311;SDS011;14019;56.964;24.016;2023-11-22T16:04:44;17.98;;;5.90;;
26311;SDS011;14019;56.964;24.016;2023-11-22T16:07:31;23.25;;;6.78;;
26311;SDS011;14019;56.964;24.016;2023-11-22T16:10:17;15.00;;;6.00;;
26311;SDS011;14019;56.964;24.016;2023-11-22T16:13:04;19.27;;;5.90;;
26311;SDS011;14019;56.964;24.016;2023-11-22T16:15:52;16.92;;;6.15;;
26311;SDS011;14019;56.964;24.016;2023-11-22T16:18:39;14.00;;;5.57;;
26311;SDS011;14019;56.964;24.016;2023-11-22T16:21:26;16.02;;;6.03;;
26311;SDS011;14019;56.964;24.016;2023-11-22T16:24:12;25.50;;;5.72;;
26311;SDS011;14019;56.964;24.016;2023-11-22T16:26:58;18.58;;;5.90;;
26311;SDS011;14019;56.964;24.016;2023-11-22T16:29:46;16.38;;;6.22;;